createdAt,value
2018-11-11T00:00:19.983Z,96.19
2018-11-11T00:02:49.855Z,95.86
2018-11-11T00:05:18.881Z,96.03
2018-11-11T00:07:48.103Z,96.44
2018-11-11T00:10:17.098Z,96.08
2018-11-11T00:12:46.307Z,97.03
2018-11-11T00:15:16.682Z,97.39
2018-11-11T00:17:46.949Z,96.90
2018-11-11T00:20:16.191Z,97.04
2018-11-11T00:22:45.293Z,97.51
2018-11-11T00:25:15.460Z,98.21
2018-11-11T00:27:45.666Z,98.18
2018-11-11T00:30:17.188Z,98.11
2018-11-11T00:32:46.462Z,98.37
2018-11-11T00:35:15.694Z,98.53
2018-11-11T00:37:44.740Z,98.62
2018-11-11T00:40:15.519Z,99.45
2018-11-11T00:42:45.037Z,99.39
2018-11-11T00:45:15.123Z,99.62
2018-11-11T00:47:44.883Z,99.08
2018-11-11T00:50:14.298Z,98.89
2018-11-11T00:52:43.366Z,99.41
2018-11-11T00:55:14.622Z,99.29
2018-11-11T00:57:44.221Z,100.00
2018-11-11T01:00:18.124Z,100.00
2018-11-11T01:02:48.049Z,100.00
2018-11-11T01:05:17.196Z,100.00
2018-11-11T01:07:46.354Z,99.97
2018-11-11T01:10:16.665Z,100.00
2018-11-11T01:12:46.207Z,100.00
2018-11-11T01:15:16.400Z,100.00
2018-11-11T01:17:45.635Z,100.00
2018-11-11T01:20:16.214Z,100.00
2018-11-11T01:22:46.046Z,100.00
2018-11-11T01:25:16.445Z,100.00
2018-11-11T01:27:45.978Z,100.00
2018-11-11T01:30:15.507Z,100.00
2018-11-11T01:32:45.072Z,100.00
2018-11-11T01:35:15.504Z,100.00
2018-11-11T01:37:45.641Z,100.00
2018-11-11T01:40:24.388Z,100.00
2018-11-11T01:42:59.490Z,100.00
2018-11-11T01:45:31.098Z,100.00
2018-11-11T01:48:00.365Z,100.00
2018-11-11T01:50:29.582Z,100.00
2018-11-11T01:52:58.664Z,100.00
2018-11-11T01:55:28.028Z,100.00
2018-11-11T01:57:57.279Z,100.00
2018-11-11T02:00:26.485Z,100.00
2018-11-11T02:02:55.783Z,100.00
2018-11-11T02:05:24.925Z,100.00
2018-11-11T02:07:54.077Z,100.00
2018-11-11T02:10:23.301Z,100.00
2018-11-11T02:12:52.472Z,100.00
2018-11-11T02:15:21.535Z,100.00
2018-11-11T02:17:51.007Z,100.00
2018-11-11T02:20:20.832Z,100.00
2018-11-11T02:22:51.435Z,100.00
2018-11-11T02:25:20.485Z,100.00
2018-11-11T02:27:49.647Z,100.00
2018-11-11T02:30:22.896Z,100.00
2018-11-11T02:32:52.205Z,100.00
2018-11-11T02:35:21.431Z,100.00
2018-11-11T02:37:50.611Z,100.00
2018-11-11T02:40:20.523Z,100.00
2018-11-11T02:42:50.521Z,100.00
2018-11-11T02:45:20.470Z,100.00
2018-11-11T02:47:49.604Z,100.00
2018-11-11T02:50:19.641Z,100.00
2018-11-11T02:52:49.324Z,100.00
2018-11-11T02:55:18.640Z,100.00
2018-11-11T02:57:48.298Z,100.00
2018-11-11T03:00:20.721Z,100.00
2018-11-11T03:02:50.204Z,100.00
2018-11-11T03:05:20.031Z,100.00
2018-11-11T03:07:49.315Z,100.00
2018-11-11T03:10:18.944Z,100.00
2018-11-11T03:12:48.945Z,100.00
2018-11-11T03:15:18.655Z,100.00
2018-11-11T03:17:48.195Z,100.00
2018-11-11T03:20:17.980Z,100.00
2018-11-11T03:22:47.049Z,100.00
2018-11-11T03:25:17.117Z,100.00
2018-11-11T03:27:46.345Z,100.00
2018-11-11T03:30:21.008Z,100.00
2018-11-11T03:32:50.400Z,100.00
2018-11-11T03:35:19.652Z,100.00
2018-11-11T03:37:48.962Z,100.00
2018-11-11T03:40:20.305Z,100.00
2018-11-11T03:42:50.247Z,100.00
2018-11-11T03:45:20.341Z,100.00
2018-11-11T03:47:50.611Z,100.00
2018-11-11T03:50:19.882Z,100.00
2018-11-11T03:52:50.367Z,100.00
2018-11-11T03:55:19.572Z,100.00
2018-11-11T03:57:48.767Z,100.00
2018-11-11T04:00:18.596Z,100.00
2018-11-11T04:02:47.797Z,100.00
2018-11-11T04:05:17.812Z,100.00
2018-11-11T04:07:47.342Z,100.00
2018-11-11T04:10:17.957Z,100.00
2018-11-11T04:12:47.899Z,100.00
2018-11-11T04:15:18.274Z,100.00
2018-11-11T04:17:47.810Z,100.00
2018-11-11T04:20:19.124Z,100.00
2018-11-11T04:22:48.335Z,100.00
2018-11-11T04:25:18.506Z,100.00
2018-11-11T04:27:48.071Z,100.00
2018-11-11T04:30:17.169Z,100.00
2018-11-11T04:32:46.238Z,100.00
2018-11-11T04:35:18.878Z,100.00
2018-11-11T04:37:48.248Z,100.00
2018-11-11T04:40:17.572Z,100.00
2018-11-11T04:42:46.658Z,100.00
2018-11-11T04:45:16.761Z,100.00
2018-11-11T04:47:46.964Z,100.00
2018-11-11T04:50:17.225Z,100.00
2018-11-11T04:52:47.065Z,100.00
2018-11-11T04:55:16.337Z,100.00
2018-11-11T04:57:45.561Z,100.00
2018-11-11T05:00:15.975Z,100.00
2018-11-11T05:02:45.245Z,100.00
2018-11-11T05:05:16.695Z,100.00
2018-11-11T05:07:45.763Z,100.00
2018-11-11T05:10:15.046Z,100.00
2018-11-11T05:12:44.623Z,100.00
2018-11-11T05:15:14.520Z,100.00
2018-11-11T05:17:44.148Z,100.00
2018-11-11T05:20:14.040Z,100.00
2018-11-11T05:22:43.682Z,100.00
2018-11-11T05:25:13.981Z,100.00
2018-11-11T05:27:43.653Z,100.00
2018-11-11T05:30:14.208Z,100.00
2018-11-11T05:32:43.294Z,100.00
2018-11-11T05:35:13.119Z,100.00
2018-11-11T05:37:43.051Z,100.00
2018-11-11T05:40:13.050Z,100.00
2018-11-11T05:42:42.906Z,100.00
2018-11-11T05:45:13.193Z,100.00
2018-11-11T05:47:42.808Z,100.00
2018-11-11T05:50:13.996Z,100.00
2018-11-11T05:52:44.053Z,100.00
2018-11-11T05:55:13.283Z,100.00
2018-11-11T05:57:42.631Z,100.00
2018-11-11T06:00:19.109Z,100.00
2018-11-11T06:02:48.197Z,100.00
2018-11-11T06:05:18.331Z,100.00
2018-11-11T06:07:48.802Z,100.00
2018-11-11T06:10:17.975Z,100.00
2018-11-11T06:12:47.200Z,100.00
2018-11-11T06:15:16.581Z,100.00
2018-11-11T06:17:45.768Z,100.00
2018-11-11T06:20:18.893Z,100.00
2018-11-11T06:22:48.204Z,100.00
2018-11-11T06:25:17.325Z,100.00
2018-11-11T06:27:46.777Z,100.00
2018-11-11T06:30:16.232Z,99.92
2018-11-11T06:32:45.217Z,99.78
2018-11-11T06:35:14.641Z,99.52
2018-11-11T06:37:44.005Z,99.74
2018-11-11T06:40:14.195Z,98.48
2018-11-11T06:42:43.445Z,98.18
2018-11-11T06:45:14.214Z,97.99
2018-11-11T06:47:43.988Z,97.77
2018-11-11T06:50:14.866Z,97.41
2018-11-11T06:52:45.721Z,96.64
2018-11-11T06:55:15.303Z,95.38
2018-11-11T06:57:45.078Z,95.37
2018-11-11T07:00:16.018Z,94.94
2018-11-11T07:02:56.675Z,94.80
2018-11-11T07:05:25.856Z,94.87
2018-11-11T07:07:55.892Z,94.33
2018-11-11T07:10:24.968Z,93.60
2018-11-11T07:12:55.432Z,93.23
2018-11-11T07:15:24.808Z,93.41
2018-11-11T07:17:54.325Z,92.66
2018-11-11T07:20:23.926Z,92.05
2018-11-11T07:22:53.141Z,90.65
2018-11-11T07:25:22.139Z,90.43
2018-11-11T07:27:51.645Z,90.42
2018-11-11T07:30:21.107Z,89.33
2018-11-11T07:32:50.400Z,89.73
2018-11-11T07:35:19.922Z,89.24
2018-11-11T07:37:49.295Z,88.22
2018-11-11T07:40:18.472Z,88.81
2018-11-11T07:42:47.712Z,88.29
2018-11-11T07:45:16.885Z,87.98
2018-11-11T07:47:46.156Z,87.36
2018-11-11T07:50:15.197Z,87.45
2018-11-11T07:52:44.235Z,87.69
2018-11-11T07:55:13.631Z,85.91
2018-11-11T07:57:43.026Z,85.29
2018-11-11T08:00:14.026Z,84.71
2018-11-11T08:02:43.807Z,84.02
2018-11-11T08:05:13.243Z,83.87
2018-11-11T08:07:42.498Z,82.69
2018-11-11T08:10:23.482Z,82.53
2018-11-11T08:12:52.626Z,81.89
2018-11-11T08:15:22.132Z,81.78
2018-11-11T08:17:51.234Z,81.01
2018-11-11T16:24:43.021Z,86.87
2018-11-11T16:27:12.404Z,86.02
2018-11-11T16:58:42.807Z,87.32
2018-11-11T17:01:11.917Z,87.10
2018-11-11T17:03:41.242Z,88.18
2018-11-11T17:06:10.856Z,88.37
2018-11-11T17:08:40.205Z,88.97
2018-11-11T17:11:09.461Z,88.98
2018-11-11T17:13:39.073Z,89.09
2018-11-11T17:16:08.269Z,88.79
2018-11-11T17:18:38.187Z,89.13
2018-11-11T17:21:07.476Z,89.73
2018-11-11T17:23:36.585Z,89.67
2018-11-11T17:26:06.270Z,89.82
2018-11-11T17:28:35.453Z,89.28
2018-11-11T17:31:04.848Z,89.99
2018-11-11T17:33:34.001Z,89.90
2018-11-11T17:36:03.447Z,89.67
2018-11-11T17:38:32.603Z,90.01
2018-11-11T17:41:01.812Z,90.30
2018-11-11T17:43:31.124Z,90.71
2018-11-11T17:46:00.240Z,91.04
2018-11-11T17:48:29.468Z,91.47
2018-11-11T17:50:58.730Z,91.01
2018-11-11T17:53:27.955Z,91.65
2018-11-11T17:55:57.060Z,91.11
2018-11-11T17:58:26.493Z,91.23
2018-11-11T18:00:55.785Z,90.51
2018-11-11T18:03:24.994Z,90.71
2018-11-11T18:05:54.195Z,90.50
2018-11-11T18:08:23.318Z,91.18
2018-11-11T18:10:52.485Z,90.91
2018-11-11T18:13:22.112Z,91.27
2018-11-11T18:15:51.243Z,91.64
2018-11-11T18:18:20.582Z,91.25
2018-11-11T18:20:50.185Z,91.42
2018-11-11T18:23:19.393Z,90.60
2018-11-11T18:25:48.517Z,89.90
2018-11-11T18:28:18.133Z,90.58
2018-11-11T18:30:47.236Z,92.52
2018-11-11T18:33:16.532Z,93.00
2018-11-11T18:35:45.940Z,92.89
2018-11-11T18:38:15.076Z,93.76
2018-11-11T18:40:44.238Z,93.47
2018-11-11T18:43:13.564Z,93.19
2018-11-11T18:45:42.675Z,92.58
2018-11-11T18:48:11.884Z,90.80
2018-11-11T18:50:41.324Z,90.19
2018-11-11T18:53:10.450Z,90.53
2018-11-11T18:55:39.492Z,90.01
2018-11-11T18:58:08.802Z,88.19
2018-11-11T19:00:38.190Z,87.43
2018-11-11T19:03:07.442Z,86.69
2018-11-11T19:05:37.114Z,87.10
2018-11-11T19:08:06.447Z,85.29
2018-11-11T19:10:35.586Z,83.48
2018-11-11T19:13:06.214Z,82.26
2018-11-11T19:15:35.253Z,83.54
2018-11-11T19:18:04.451Z,83.31
2018-11-11T19:20:33.951Z,84.54
2018-11-11T19:23:03.028Z,84.77
2018-11-11T19:25:32.493Z,85.49
2018-11-11T19:28:02.321Z,85.69
2018-11-11T19:30:32.281Z,84.17
2018-11-11T19:33:01.484Z,84.98
2018-11-11T19:35:30.804Z,85.24
2018-11-11T19:38:00.404Z,86.48
2018-11-11T19:40:30.135Z,87.98
2018-11-11T19:43:00.665Z,87.25
2018-11-11T19:45:30.529Z,87.69
2018-11-11T19:47:59.992Z,87.71
2018-11-11T19:50:30.127Z,88.45
2018-11-11T19:52:59.520Z,87.78
2018-11-11T19:55:29.251Z,88.48
2018-11-11T19:57:58.485Z,89.06
2018-11-11T20:00:29.480Z,88.95
2018-11-11T20:02:59.765Z,90.49
2018-11-11T20:05:29.064Z,91.32
2018-11-11T20:07:59.145Z,90.66
2018-11-11T20:10:29.216Z,91.06
2018-11-11T20:12:58.836Z,92.10
2018-11-11T20:15:29.616Z,91.85
2018-11-11T20:17:58.687Z,91.00
2018-11-11T20:20:31.538Z,91.47
2018-11-11T20:23:00.821Z,91.93
2018-11-11T20:25:30.134Z,93.15
2018-11-11T20:27:59.410Z,92.97
2018-11-11T20:30:30.056Z,93.05
2018-11-11T20:32:59.458Z,93.51
2018-11-11T20:35:29.881Z,93.93
2018-11-11T20:37:59.181Z,94.24
2018-11-11T20:40:28.857Z,95.51
2018-11-11T20:42:58.356Z,95.21
2018-11-11T20:45:29.490Z,95.43
2018-11-11T20:47:58.626Z,95.70
2018-11-11T20:50:29.435Z,95.73
2018-11-11T20:52:59.833Z,95.78
2018-11-11T20:55:29.308Z,96.73
2018-11-11T20:57:58.658Z,97.00
2018-11-11T21:00:29.321Z,96.98
2018-11-11T21:02:58.599Z,97.15
2018-11-11T21:05:28.464Z,97.02
2018-11-11T21:07:58.989Z,96.71
2018-11-11T21:10:29.122Z,97.58
2018-11-11T21:12:58.505Z,97.60
2018-11-11T21:15:28.720Z,98.22
2018-11-11T21:17:57.862Z,98.37
2018-11-11T21:20:29.918Z,98.41
2018-11-11T21:22:59.231Z,97.93
2018-11-11T21:25:28.614Z,98.35
2018-11-11T21:27:57.996Z,98.30
2018-11-11T21:30:28.544Z,98.34
2018-11-11T21:32:57.942Z,98.30
2018-11-11T21:35:28.042Z,98.71
2018-11-11T21:37:57.302Z,98.89
2018-11-11T21:40:27.348Z,99.63
2018-11-11T21:42:56.921Z,100.00
2018-11-11T21:45:27.137Z,100.00
2018-11-11T21:47:56.199Z,100.00
2018-11-11T21:50:26.439Z,100.00
2018-11-11T21:53:03.259Z,100.00
2018-11-11T21:55:32.408Z,100.00
2018-11-11T21:58:01.714Z,100.00
2018-11-11T22:00:30.940Z,100.00
2018-11-11T22:03:00.120Z,100.00
2018-11-11T22:05:29.200Z,100.00
2018-11-11T22:07:58.792Z,100.00
2018-11-11T22:10:28.065Z,100.00
2018-11-11T22:12:57.196Z,100.00
2018-11-11T22:15:26.668Z,100.00
2018-11-11T22:18:58.647Z,100.00
2018-11-11T22:21:28.151Z,100.00
2018-11-11T22:23:57.294Z,100.00
2018-11-11T22:26:26.400Z,100.00
2018-11-11T22:28:55.830Z,100.00
2018-11-11T22:31:24.948Z,100.00
2018-11-11T22:33:53.940Z,100.00
2018-11-11T22:37:26.134Z,100.00
2018-11-11T22:39:55.347Z,100.00
2018-11-11T22:42:24.641Z,100.00
2018-11-11T22:44:53.740Z,100.00
2018-11-11T22:47:23.025Z,100.00
2018-11-11T22:49:52.108Z,100.00
2018-11-11T22:52:21.570Z,100.00
2018-11-11T22:54:50.728Z,100.00
2018-11-11T22:57:20.027Z,100.00
2018-11-11T22:59:49.256Z,100.00
2018-11-11T23:02:18.467Z,100.00
2018-11-11T23:04:47.656Z,100.00
2018-11-11T23:07:16.936Z,100.00
2018-11-11T23:09:45.950Z,100.00
2018-11-11T23:12:15.041Z,100.00
2018-11-11T23:14:44.334Z,100.00
2018-11-11T23:17:13.501Z,100.00
2018-11-11T23:19:42.664Z,100.00
2018-11-11T23:22:11.877Z,100.00
2018-11-11T23:24:40.966Z,100.00
2018-11-11T23:27:10.220Z,100.00
2018-11-11T23:29:39.777Z,100.00
2018-11-11T23:32:09.048Z,100.00
2018-11-11T23:34:38.289Z,100.00
2018-11-11T23:37:07.726Z,100.00
2018-11-11T23:39:36.828Z,100.00
2018-11-11T23:42:06.401Z,100.00
2018-11-11T23:44:35.656Z,100.00
2018-11-11T23:47:04.930Z,100.00
2018-11-11T23:49:34.272Z,100.00
2018-11-11T23:52:03.579Z,100.00
2018-11-11T23:54:32.829Z,100.00
2018-11-11T23:57:02.218Z,100.00
2018-11-11T23:59:31.519Z,100.00
